sensor_id;sensor_type;location;lat;lon;timestamp;P1;durP1;ratioP1;P2;durP2;ratioP2
13347;SDS011;6743;49.934;9.138;2023-05-16T00:00:04;3.50;;;2.80;;
13347;SDS011;6743;49.934;9.138;2023-05-16T00:02:33;2.70;;;2.50;;
13347;SDS011;6743;49.934;9.138;2023-05-16T00:05:00;3.53;;;3.17;;
13347;SDS011;6743;49.934;9.138;2023-05-16T00:07:26;3.78;;;3.30;;
13347;SDS011;6743;49.934;9.138;2023-05-16T00:09:52;3.70;;;3.15;;
13347;SDS011;6743;49.934;9.138;2023-05-16T00:12:18;4.90;;;3.60;;
13347;SDS011;6743;49.934;9.138;2023-05-16T00:14:46;3.20;;;2.90;;
13347;SDS011;6743;49.934;9.138;2023-05-16T00:17:12;3.80;;;3.12;;
13347;SDS011;6743;49.934;9.138;2023-05-16T00:19:41;3.67;;;3.37;;
13347;SDS011;6743;49.934;9.138;2023-05-16T00:22:08;3.33;;;3.03;;
13347;SDS011;6743;49.934;9.138;2023-05-16T00:24:36;5.55;;;3.78;;
13347;SDS011;6743;49.934;9.138;2023-05-16T00:27:02;5.45;;;3.90;;
13347;SDS011;6743;49.934;9.138;2023-05-16T00:29:28;4.12;;;3.72;;
13347;SDS011;6743;49.934;9.138;2023-05-16T00:31:55;4.70;;;3.90;;
13347;SDS011;6743;49.934;9.138;2023-05-16T00:34:21;4.90;;;4.37;;
13347;SDS011;6743;49.934;9.138;2023-05-16T00:36:48;6.05;;;4.72;;
13347;SDS011;6743;49.934;9.138;2023-05-16T00:39:14;7.20;;;5.12;;
13347;SDS011;6743;49.934;9.138;2023-05-16T00:41:41;5.75;;;4.50;;
13347;SDS011;6743;49.934;9.138;2023-05-16T00:44:07;6.22;;;4.93;;
13347;SDS011;6743;49.934;9.138;2023-05-16T00:46:33;6.37;;;5.22;;
13347;SDS011;6743;49.934;9.138;2023-05-16T00:49:00;5.97;;;4.72;;
13347;SDS011;6743;49.934;9.138;2023-05-16T00:51:26;5.85;;;4.80;;
13347;SDS011;6743;49.934;9.138;2023-05-16T00:53:52;6.12;;;4.65;;
13347;SDS011;6743;49.934;9.138;2023-05-16T00:56:19;6.47;;;5.12;;
13347;SDS011;6743;49.934;9.138;2023-05-16T00:58:47;5.72;;;4.97;;
13347;SDS011;6743;49.934;9.138;2023-05-16T01:01:14;5.93;;;4.72;;
13347;SDS011;6743;49.934;9.138;2023-05-16T01:03:40;7.85;;;5.07;;
13347;SDS011;6743;49.934;9.138;2023-05-16T01:06:11;6.97;;;5.05;;
13347;SDS011;6743;49.934;9.138;2023-05-16T01:08:37;6.97;;;4.80;;
13347;SDS011;6743;49.934;9.138;2023-05-16T01:11:05;6.53;;;5.03;;
13347;SDS011;6743;49.934;9.138;2023-05-16T01:13:40;6.15;;;4.72;;
13347;SDS011;6743;49.934;9.138;2023-05-16T01:16:15;5.90;;;4.30;;
13347;SDS011;6743;49.934;9.138;2023-05-16T01:18:47;5.47;;;4.68;;
13347;SDS011;6743;49.934;9.138;2023-05-16T01:21:23;9.52;;;4.75;;
13347;SDS011;6743;49.934;9.138;2023-05-16T01:24:08;6.18;;;4.90;;
13347;SDS011;6743;49.934;9.138;2023-05-16T01:26:45;5.62;;;4.05;;
13347;SDS011;6743;49.934;9.138;2023-05-16T01:29:11;6.60;;;5.07;;
13347;SDS011;6743;49.934;9.138;2023-05-16T01:31:37;7.43;;;5.15;;
13347;SDS011;6743;49.934;9.138;2023-05-16T01:34:04;7.10;;;4.97;;
13347;SDS011;6743;49.934;9.138;2023-05-16T01:36:32;7.60;;;5.07;;
13347;SDS011;6743;49.934;9.138;2023-05-16T01:39:06;7.62;;;5.05;;
13347;SDS011;6743;49.934;9.138;2023-05-16T01:41:40;5.72;;;4.70;;
13347;SDS011;6743;49.934;9.138;2023-05-16T01:44:15;9.60;;;5.85;;
13347;SDS011;6743;49.934;9.138;2023-05-16T01:46:44;7.90;;;5.95;;
13347;SDS011;6743;49.934;9.138;2023-05-16T01:49:14;6.57;;;4.85;;
13347;SDS011;6743;49.934;9.138;2023-05-16T01:51:44;8.98;;;5.47;;
13347;SDS011;6743;49.934;9.138;2023-05-16T01:54:15;8.65;;;5.40;;
13347;SDS011;6743;49.934;9.138;2023-05-16T01:56:44;7.43;;;5.22;;
13347;SDS011;6743;49.934;9.138;2023-05-16T01:59:16;6.22;;;4.97;;
13347;SDS011;6743;49.934;9.138;2023-05-16T02:01:43;8.05;;;5.25;;
13347;SDS011;6743;49.934;9.138;2023-05-16T02:04:10;8.40;;;5.70;;
13347;SDS011;6743;49.934;9.138;2023-05-16T02:06:37;11.10;;;5.68;;
13347;SDS011;6743;49.934;9.138;2023-05-16T02:09:04;8.80;;;5.62;;
13347;SDS011;6743;49.934;9.138;2023-05-16T02:11:30;6.28;;;5.15;;
13347;SDS011;6743;49.934;9.138;2023-05-16T02:13:56;7.35;;;5.40;;
13347;SDS011;6743;49.934;9.138;2023-05-16T02:16:22;7.90;;;4.62;;
13347;SDS011;6743;49.934;9.138;2023-05-16T02:18:48;8.23;;;5.40;;
13347;SDS011;6743;49.934;9.138;2023-05-16T02:21:14;7.22;;;5.55;;
13347;SDS011;6743;49.934;9.138;2023-05-16T02:23:40;8.43;;;5.90;;
13347;SDS011;6743;49.934;9.138;2023-05-16T02:26:06;7.78;;;5.20;;
13347;SDS011;6743;49.934;9.138;2023-05-16T02:28:33;8.70;;;5.68;;
13347;SDS011;6743;49.934;9.138;2023-05-16T02:30:59;6.95;;;5.35;;
13347;SDS011;6743;49.934;9.138;2023-05-16T02:33:26;5.47;;;4.43;;
13347;SDS011;6743;49.934;9.138;2023-05-16T02:35:53;6.80;;;5.45;;
13347;SDS011;6743;49.934;9.138;2023-05-16T02:38:20;6.43;;;4.75;;
13347;SDS011;6743;49.934;9.138;2023-05-16T02:40:46;8.73;;;5.35;;
13347;SDS011;6743;49.934;9.138;2023-05-16T02:43:12;6.00;;;4.68;;
13347;SDS011;6743;49.934;9.138;2023-05-16T02:45:38;5.90;;;5.15;;
13347;SDS011;6743;49.934;9.138;2023-05-16T02:48:05;10.50;;;5.50;;
13347;SDS011;6743;49.934;9.138;2023-05-16T02:50:31;9.30;;;5.47;;
13347;SDS011;6743;49.934;9.138;2023-05-16T02:52:57;8.32;;;5.62;;
13347;SDS011;6743;49.934;9.138;2023-05-16T02:55:26;7.18;;;5.15;;
13347;SDS011;6743;49.934;9.138;2023-05-16T02:57:52;8.85;;;5.53;;
13347;SDS011;6743;49.934;9.138;2023-05-16T03:00:18;9.13;;;5.45;;
13347;SDS011;6743;49.934;9.138;2023-05-16T03:02:45;8.20;;;4.93;;
13347;SDS011;6743;49.934;9.138;2023-05-16T03:05:11;7.47;;;5.12;;
13347;SDS011;6743;49.934;9.138;2023-05-16T03:07:38;7.97;;;5.43;;
13347;SDS011;6743;49.934;9.138;2023-05-16T03:10:04;7.15;;;4.87;;
13347;SDS011;6743;49.934;9.138;2023-05-16T03:12:31;9.98;;;6.57;;
13347;SDS011;6743;49.934;9.138;2023-05-16T03:14:57;8.00;;;6.22;;
13347;SDS011;6743;49.934;9.138;2023-05-16T03:17:23;8.50;;;6.00;;
13347;SDS011;6743;49.934;9.138;2023-05-16T03:19:49;7.43;;;5.30;;
13347;SDS011;6743;49.934;9.138;2023-05-16T03:22:15;8.30;;;5.22;;
13347;SDS011;6743;49.934;9.138;2023-05-16T03:24:42;7.10;;;5.00;;
13347;SDS011;6743;49.934;9.138;2023-05-16T03:27:08;6.10;;;4.75;;
13347;SDS011;6743;49.934;9.138;2023-05-16T03:29:35;9.02;;;5.55;;
13347;SDS011;6743;49.934;9.138;2023-05-16T03:32:01;8.48;;;5.40;;
13347;SDS011;6743;49.934;9.138;2023-05-16T03:34:27;7.82;;;4.85;;
13347;SDS011;6743;49.934;9.138;2023-05-16T03:36:53;8.65;;;5.37;;
13347;SDS011;6743;49.934;9.138;2023-05-16T03:39:19;7.43;;;5.28;;
13347;SDS011;6743;49.934;9.138;2023-05-16T03:41:46;8.13;;;5.40;;
13347;SDS011;6743;49.934;9.138;2023-05-16T03:44:12;7.40;;;5.07;;
13347;SDS011;6743;49.934;9.138;2023-05-16T03:46:38;6.10;;;4.68;;
13347;SDS011;6743;49.934;9.138;2023-05-16T03:49:04;7.07;;;4.85;;
13347;SDS011;6743;49.934;9.138;2023-05-16T03:51:30;6.37;;;4.75;;
13347;SDS011;6743;49.934;9.138;2023-05-16T03:53:57;8.90;;;4.97;;
13347;SDS011;6743;49.934;9.138;2023-05-16T03:56:23;7.70;;;5.20;;
13347;SDS011;6743;49.934;9.138;2023-05-16T03:58:50;5.22;;;4.15;;
13347;SDS011;6743;49.934;9.138;2023-05-16T04:01:16;6.20;;;4.80;;
13347;SDS011;6743;49.934;9.138;2023-05-16T04:03:42;8.48;;;4.97;;
13347;SDS011;6743;49.934;9.138;2023-05-16T04:06:08;7.57;;;4.80;;
13347;SDS011;6743;49.934;9.138;2023-05-16T04:08:34;7.80;;;4.25;;
13347;SDS011;6743;49.934;9.138;2023-05-16T04:11:00;8.02;;;5.28;;
13347;SDS011;6743;49.934;9.138;2023-05-16T04:13:26;7.62;;;5.03;;
13347;SDS011;6743;49.934;9.138;2023-05-16T04:15:53;5.50;;;4.53;;
13347;SDS011;6743;49.934;9.138;2023-05-16T04:18:19;6.78;;;5.22;;
13347;SDS011;6743;49.934;9.138;2023-05-16T04:20:46;5.32;;;4.60;;
13347;SDS011;6743;49.934;9.138;2023-05-16T04:23:12;4.82;;;4.12;;
13347;SDS011;6743;49.934;9.138;2023-05-16T04:25:38;8.00;;;5.60;;
13347;SDS011;6743;49.934;9.138;2023-05-16T04:28:04;6.07;;;4.70;;
13347;SDS011;6743;49.934;9.138;2023-05-16T04:30:31;6.45;;;4.37;;
13347;SDS011;6743;49.934;9.138;2023-05-16T04:32:57;7.05;;;4.50;;
13347;SDS011;6743;49.934;9.138;2023-05-16T04:35:24;6.75;;;5.00;;
13347;SDS011;6743;49.934;9.138;2023-05-16T04:37:50;8.13;;;5.47;;
13347;SDS011;6743;49.934;9.138;2023-05-16T04:40:16;8.60;;;5.28;;
13347;SDS011;6743;49.934;9.138;2023-05-16T04:42:42;7.78;;;5.25;;
13347;SDS011;6743;49.934;9.138;2023-05-16T04:45:09;6.82;;;4.68;;
13347;SDS011;6743;49.934;9.138;2023-05-16T04:47:36;5.75;;;5.05;;
13347;SDS011;6743;49.934;9.138;2023-05-16T04:50:03;8.40;;;6.07;;
13347;SDS011;6743;49.934;9.138;2023-05-16T04:52:30;7.65;;;5.22;;
13347;SDS011;6743;49.934;9.138;2023-05-16T04:54:56;11.02;;;7.03;;
13347;SDS011;6743;49.934;9.138;2023-05-16T04:57:24;8.35;;;5.28;;
13347;SDS011;6743;49.934;9.138;2023-05-16T04:59:50;7.60;;;5.60;;
13347;SDS011;6743;49.934;9.138;2023-05-16T05:02:18;5.78;;;4.55;;
13347;SDS011;6743;49.934;9.138;2023-05-16T05:04:44;9.90;;;5.65;;
13347;SDS011;6743;49.934;9.138;2023-05-16T05:07:11;6.90;;;4.20;;
13347;SDS011;6743;49.934;9.138;2023-05-16T05:09:38;7.30;;;5.57;;
13347;SDS011;6743;49.934;9.138;2023-05-16T05:12:04;6.93;;;4.55;;
13347;SDS011;6743;49.934;9.138;2023-05-16T05:14:32;8.65;;;5.57;;
13347;SDS011;6743;49.934;9.138;2023-05-16T05:16:58;7.32;;;4.90;;
13347;SDS011;6743;49.934;9.138;2023-05-16T05:19:26;8.85;;;5.65;;
13347;SDS011;6743;49.934;9.138;2023-05-16T05:21:52;11.93;;;5.60;;
13347;SDS011;6743;49.934;9.138;2023-05-16T05:24:19;7.97;;;5.20;;
13347;SDS011;6743;49.934;9.138;2023-05-16T05:26:45;7.25;;;5.55;;
13347;SDS011;6743;49.934;9.138;2023-05-16T05:29:13;6.12;;;4.70;;
13347;SDS011;6743;49.934;9.138;2023-05-16T05:31:39;7.20;;;5.18;;
13347;SDS011;6743;49.934;9.138;2023-05-16T05:34:05;7.28;;;5.10;;
13347;SDS011;6743;49.934;9.138;2023-05-16T05:36:31;8.57;;;5.68;;
13347;SDS011;6743;49.934;9.138;2023-05-16T05:38:58;7.10;;;5.12;;
13347;SDS011;6743;49.934;9.138;2023-05-16T05:41:25;6.90;;;5.40;;
13347;SDS011;6743;49.934;9.138;2023-05-16T05:43:52;7.18;;;4.78;;
13347;SDS011;6743;49.934;9.138;2023-05-16T05:46:19;7.15;;;5.25;;
13347;SDS011;6743;49.934;9.138;2023-05-16T05:48:45;6.93;;;5.65;;
13347;SDS011;6743;49.934;9.138;2023-05-16T05:51:12;5.93;;;4.68;;
13347;SDS011;6743;49.934;9.138;2023-05-16T05:53:38;6.28;;;4.95;;
13347;SDS011;6743;49.934;9.138;2023-05-16T05:56:10;10.65;;;6.30;;
13347;SDS011;6743;49.934;9.138;2023-05-16T05:58:39;7.37;;;5.32;;
13347;SDS011;6743;49.934;9.138;2023-05-16T06:01:06;7.00;;;5.07;;
13347;SDS011;6743;49.934;9.138;2023-05-16T06:03:32;8.13;;;5.25;;
13347;SDS011;6743;49.934;9.138;2023-05-16T06:05:59;9.63;;;5.80;;
13347;SDS011;6743;49.934;9.138;2023-05-16T06:08:25;5.78;;;4.95;;
13347;SDS011;6743;49.934;9.138;2023-05-16T06:10:51;9.30;;;5.93;;
13347;SDS011;6743;49.934;9.138;2023-05-16T06:13:27;9.75;;;6.30;;
13347;SDS011;6743;49.934;9.138;2023-05-16T06:15:54;7.90;;;5.65;;
13347;SDS011;6743;49.934;9.138;2023-05-16T06:18:20;6.43;;;5.00;;
13347;SDS011;6743;49.934;9.138;2023-05-16T06:20:46;8.18;;;6.05;;
13347;SDS011;6743;49.934;9.138;2023-05-16T06:23:12;7.47;;;4.95;;
13347;SDS011;6743;49.934;9.138;2023-05-16T06:25:38;9.05;;;5.40;;
13347;SDS011;6743;49.934;9.138;2023-05-16T06:28:04;7.10;;;5.05;;
13347;SDS011;6743;49.934;9.138;2023-05-16T06:30:30;6.70;;;4.93;;
13347;SDS011;6743;49.934;9.138;2023-05-16T06:32:57;11.90;;;6.50;;
13347;SDS011;6743;49.934;9.138;2023-05-16T06:35:23;7.80;;;5.50;;
13347;SDS011;6743;49.934;9.138;2023-05-16T06:37:49;7.85;;;5.25;;
13347;SDS011;6743;49.934;9.138;2023-05-16T06:40:15;6.32;;;4.80;;
13347;SDS011;6743;49.934;9.138;2023-05-16T06:42:41;6.10;;;4.87;;
13347;SDS011;6743;49.934;9.138;2023-05-16T06:45:08;9.38;;;6.10;;
13347;SDS011;6743;49.934;9.138;2023-05-16T06:47:35;6.68;;;4.53;;
13347;SDS011;6743;49.934;9.138;2023-05-16T06:50:01;9.10;;;5.32;;
13347;SDS011;6743;49.934;9.138;2023-05-16T06:52:28;7.20;;;5.45;;
13347;SDS011;6743;49.934;9.138;2023-05-16T06:54:54;8.68;;;5.57;;
13347;SDS011;6743;49.934;9.138;2023-05-16T06:57:20;7.57;;;4.68;;
13347;SDS011;6743;49.934;9.138;2023-05-16T06:59:46;7.35;;;4.65;;
13347;SDS011;6743;49.934;9.138;2023-05-16T07:02:12;6.65;;;4.97;;
13347;SDS011;6743;49.934;9.138;2023-05-16T07:04:38;9.27;;;5.80;;
13347;SDS011;6743;49.934;9.138;2023-05-16T07:07:05;9.43;;;4.68;;
13347;SDS011;6743;49.934;9.138;2023-05-16T07:09:33;9.85;;;5.78;;
13347;SDS011;6743;49.934;9.138;2023-05-16T07:11:59;7.97;;;5.78;;
13347;SDS011;6743;49.934;9.138;2023-05-16T07:14:25;7.55;;;4.75;;
13347;SDS011;6743;49.934;9.138;2023-05-16T07:16:51;9.57;;;5.18;;
13347;SDS011;6743;49.934;9.138;2023-05-16T07:19:17;6.20;;;4.25;;
13347;SDS011;6743;49.934;9.138;2023-05-16T07:21:43;7.43;;;4.97;;
13347;SDS011;6743;49.934;9.138;2023-05-16T07:24:09;7.35;;;5.00;;
13347;SDS011;6743;49.934;9.138;2023-05-16T07:26:36;5.03;;;3.72;;
13347;SDS011;6743;49.934;9.138;2023-05-16T07:29:01;4.78;;;3.92;;
13347;SDS011;6743;49.934;9.138;2023-05-16T07:31:28;5.82;;;4.30;;
13347;SDS011;6743;49.934;9.138;2023-05-16T07:33:55;5.82;;;4.37;;
13347;SDS011;6743;49.934;9.138;2023-05-16T07:36:21;6.07;;;5.10;;
13347;SDS011;6743;49.934;9.138;2023-05-16T07:38:47;4.25;;;3.70;;
13347;SDS011;6743;49.934;9.138;2023-05-16T07:41:14;5.68;;;4.50;;
13347;SDS011;6743;49.934;9.138;2023-05-16T07:43:41;6.10;;;3.80;;
13347;SDS011;6743;49.934;9.138;2023-05-16T07:46:10;5.15;;;4.32;;
13347;SDS011;6743;49.934;9.138;2023-05-16T07:48:36;6.20;;;4.25;;
13347;SDS011;6743;49.934;9.138;2023-05-16T07:51:02;4.45;;;3.72;;
13347;SDS011;6743;49.934;9.138;2023-05-16T07:53:28;3.85;;;3.22;;
13347;SDS011;6743;49.934;9.138;2023-05-16T07:55:54;3.87;;;3.47;;
13347;SDS011;6743;49.934;9.138;2023-05-16T07:58:21;4.68;;;3.75;;
13347;SDS011;6743;49.934;9.138;2023-05-16T08:00:47;4.00;;;3.60;;
13347;SDS011;6743;49.934;9.138;2023-05-16T08:03:14;3.22;;;2.78;;
13347;SDS011;6743;49.934;9.138;2023-05-16T08:05:46;3.67;;;3.22;;
13347;SDS011;6743;49.934;9.138;2023-05-16T08:08:13;6.15;;;3.35;;
13347;SDS011;6743;49.934;9.138;2023-05-16T08:10:40;3.53;;;2.78;;
13347;SDS011;6743;49.934;9.138;2023-05-16T08:13:06;2.45;;;2.25;;
13347;SDS011;6743;49.934;9.138;2023-05-16T08:15:32;3.83;;;2.72;;
13347;SDS011;6743;49.934;9.138;2023-05-16T08:17:58;3.50;;;2.60;;
13347;SDS011;6743;49.934;9.138;2023-05-16T08:20:25;3.25;;;2.33;;
13347;SDS011;6743;49.934;9.138;2023-05-16T08:22:52;2.37;;;2.10;;
13347;SDS011;6743;49.934;9.138;2023-05-16T08:25:19;4.43;;;2.75;;
13347;SDS011;6743;49.934;9.138;2023-05-16T08:27:45;1.92;;;1.73;;
13347;SDS011;6743;49.934;9.138;2023-05-16T08:30:13;2.33;;;1.80;;
13347;SDS011;6743;49.934;9.138;2023-05-16T08:32:40;1.60;;;1.50;;
13347;SDS011;6743;49.934;9.138;2023-05-16T08:35:06;2.55;;;1.83;;
13347;SDS011;6743;49.934;9.138;2023-05-16T08:37:33;2.70;;;1.48;;
13347;SDS011;6743;49.934;9.138;2023-05-16T08:39:59;1.92;;;1.70;;
13347;SDS011;6743;49.934;9.138;2023-05-16T08:42:25;2.60;;;1.20;;
13347;SDS011;6743;49.934;9.138;2023-05-16T08:44:52;3.35;;;1.65;;
13347;SDS011;6743;49.934;9.138;2023-05-16T08:47:19;2.65;;;1.73;;
13347;SDS011;6743;49.934;9.138;2023-05-16T08:49:50;1.30;;;1.20;;
13347;SDS011;6743;49.934;9.138;2023-05-16T08:52:17;1.33;;;1.23;;
13347;SDS011;6743;49.934;9.138;2023-05-16T08:54:45;1.50;;;1.40;;
13347;SDS011;6743;49.934;9.138;2023-05-16T08:57:12;1.55;;;1.40;;
13347;SDS011;6743;49.934;9.138;2023-05-16T08:59:39;1.08;;;1.08;;
13347;SDS011;6743;49.934;9.138;2023-05-16T09:02:06;1.00;;;1.00;;
13347;SDS011;6743;49.934;9.138;2023-05-16T09:04:33;0.40;;;0.40;;
13347;SDS011;6743;49.934;9.138;2023-05-16T09:07:01;0.62;;;0.62;;
13347;SDS011;6743;49.934;9.138;2023-05-16T09:09:28;0.52;;;0.52;;
13347;SDS011;6743;49.934;9.138;2023-05-16T09:11:54;0.70;;;0.70;;
13347;SDS011;6743;49.934;9.138;2023-05-16T09:14:20;0.60;;;0.60;;
13347;SDS011;6743;49.934;9.138;2023-05-16T09:16:52;0.77;;;0.77;;
13347;SDS011;6743;49.934;9.138;2023-05-16T09:19:31;0.70;;;0.70;;
13347;SDS011;6743;49.934;9.138;2023-05-16T09:22:02;0.60;;;0.60;;
13347;SDS011;6743;49.934;9.138;2023-05-16T09:24:28;0.60;;;0.60;;
13347;SDS011;6743;49.934;9.138;2023-05-16T09:26:54;0.50;;;0.50;;
13347;SDS011;6743;49.934;9.138;2023-05-16T09:29:21;0.40;;;0.40;;
13347;SDS011;6743;49.934;9.138;2023-05-16T09:31:48;0.47;;;0.47;;
13347;SDS011;6743;49.934;9.138;2023-05-16T09:34:14;0.65;;;0.65;;
13347;SDS011;6743;49.934;9.138;2023-05-16T09:36:40;2.57;;;0.77;;
13347;SDS011;6743;49.934;9.138;2023-05-16T09:39:07;0.37;;;0.37;;
13347;SDS011;6743;49.934;9.138;2023-05-16T09:41:33;0.50;;;0.50;;
13347;SDS011;6743;49.934;9.138;2023-05-16T09:44:02;0.80;;;0.80;;
13347;SDS011;6743;49.934;9.138;2023-05-16T09:46:32;0.60;;;0.60;;
13347;SDS011;6743;49.934;9.138;2023-05-16T09:48:59;0.57;;;0.57;;
13347;SDS011;6743;49.934;9.138;2023-05-16T09:51:25;0.60;;;0.60;;
13347;SDS011;6743;49.934;9.138;2023-05-16T09:53:52;1.33;;;0.85;;
13347;SDS011;6743;49.934;9.138;2023-05-16T09:56:19;1.02;;;0.73;;
13347;SDS011;6743;49.934;9.138;2023-05-16T09:58:45;0.80;;;0.80;;
13347;SDS011;6743;49.934;9.138;2023-05-16T10:01:12;0.73;;;0.73;;
13347;SDS011;6743;49.934;9.138;2023-05-16T10:03:38;0.52;;;0.52;;
13347;SDS011;6743;49.934;9.138;2023-05-16T10:06:06;1.77;;;0.70;;
13347;SDS011;6743;49.934;9.138;2023-05-16T10:08:34;0.70;;;0.70;;
13347;SDS011;6743;49.934;9.138;2023-05-16T10:11:01;0.80;;;0.80;;
13347;SDS011;6743;49.934;9.138;2023-05-16T10:13:30;0.85;;;0.85;;
13347;SDS011;6743;49.934;9.138;2023-05-16T10:15:58;0.77;;;0.77;;
13347;SDS011;6743;49.934;9.138;2023-05-16T10:18:28;1.08;;;0.55;;
13347;SDS011;6743;49.934;9.138;2023-05-16T10:20:56;0.88;;;0.82;;
13347;SDS011;6743;49.934;9.138;2023-05-16T10:23:26;0.57;;;0.57;;
13347;SDS011;6743;49.934;9.138;2023-05-16T10:25:54;0.82;;;0.82;;
13347;SDS011;6743;49.934;9.138;2023-05-16T10:28:22;0.82;;;0.70;;
13347;SDS011;6743;49.934;9.138;2023-05-16T10:30:54;0.55;;;0.55;;
13347;SDS011;6743;49.934;9.138;2023-05-16T10:33:21;0.90;;;0.90;;
13347;SDS011;6743;49.934;9.138;2023-05-16T10:35:47;1.95;;;0.80;;
13347;SDS011;6743;49.934;9.138;2023-05-16T10:38:14;1.45;;;0.70;;
13347;SDS011;6743;49.934;9.138;2023-05-16T10:40:44;0.77;;;0.77;;
13347;SDS011;6743;49.934;9.138;2023-05-16T10:43:13;1.20;;;0.80;;
13347;SDS011;6743;49.934;9.138;2023-05-16T10:45:53;0.70;;;0.70;;
13347;SDS011;6743;49.934;9.138;2023-05-16T10:48:27;0.40;;;0.40;;
13347;SDS011;6743;49.934;9.138;2023-05-16T10:50:53;0.50;;;0.50;;
13347;SDS011;6743;49.934;9.138;2023-05-16T10:53:20;1.50;;;0.70;;
13347;SDS011;6743;49.934;9.138;2023-05-16T10:55:48;0.82;;;0.57;;
13347;SDS011;6743;49.934;9.138;2023-05-16T10:58:22;0.85;;;0.85;;
13347;SDS011;6743;49.934;9.138;2023-05-16T11:00:49;0.82;;;0.62;;
13347;SDS011;6743;49.934;9.138;2023-05-16T11:03:35;0.40;;;0.40;;
13347;SDS011;6743;49.934;9.138;2023-05-16T11:06:02;1.20;;;0.77;;
13347;SDS011;6743;49.934;9.138;2023-05-16T11:08:29;1.85;;;0.70;;
13347;SDS011;6743;49.934;9.138;2023-05-16T11:13:54;0.88;;;0.88;;
13347;SDS011;6743;49.934;9.138;2023-05-16T11:16:26;2.53;;;1.25;;
13347;SDS011;6743;49.934;9.138;2023-05-16T11:18:53;0.90;;;0.90;;
13347;SDS011;6743;49.934;9.138;2023-05-16T11:24:32;0.75;;;0.75;;
13347;SDS011;6743;49.934;9.138;2023-05-16T11:27:00;0.75;;;0.75;;
13347;SDS011;6743;49.934;9.138;2023-05-16T11:29:29;1.10;;;0.95;;
13347;SDS011;6743;49.934;9.138;2023-05-16T11:31:57;0.73;;;0.73;;
13347;SDS011;6743;49.934;9.138;2023-05-16T11:34:24;0.93;;;0.80;;
13347;SDS011;6743;49.934;9.138;2023-05-16T11:36:50;0.95;;;0.73;;
13347;SDS011;6743;49.934;9.138;2023-05-16T11:39:17;0.88;;;0.88;;
13347;SDS011;6743;49.934;9.138;2023-05-16T11:41:44;0.68;;;0.68;;
13347;SDS011;6743;49.934;9.138;2023-05-16T11:44:10;0.85;;;0.85;;
13347;SDS011;6743;49.934;9.138;2023-05-16T11:46:37;0.73;;;0.73;;
13347;SDS011;6743;49.934;9.138;2023-05-16T11:49:05;1.35;;;0.80;;
13347;SDS011;6743;49.934;9.138;2023-05-16T11:51:34;0.98;;;0.98;;
13347;SDS011;6743;49.934;9.138;2023-05-16T11:54:02;1.27;;;0.77;;
13347;SDS011;6743;49.934;9.138;2023-05-16T11:56:29;1.42;;;1.33;;
13347;SDS011;6743;49.934;9.138;2023-05-16T11:58:56;0.57;;;0.57;;
13347;SDS011;6743;49.934;9.138;2023-05-16T12:01:23;0.37;;;0.37;;
13347;SDS011;6743;49.934;9.138;2023-05-16T12:03:53;1.52;;;0.80;;
13347;SDS011;6743;49.934;9.138;2023-05-16T12:06:20;0.77;;;0.77;;
13347;SDS011;6743;49.934;9.138;2023-05-16T12:08:49;0.80;;;0.80;;
13347;SDS011;6743;49.934;9.138;2023-05-16T12:11:15;1.20;;;1.00;;
13347;SDS011;6743;49.934;9.138;2023-05-16T12:13:42;0.93;;;0.93;;
13347;SDS011;6743;49.934;9.138;2023-05-16T12:16:08;1.40;;;0.82;;
13347;SDS011;6743;49.934;9.138;2023-05-16T12:18:36;0.85;;;0.85;;
13347;SDS011;6743;49.934;9.138;2023-05-16T12:21:03;0.50;;;0.50;;
13347;SDS011;6743;49.934;9.138;2023-05-16T12:23:31;1.05;;;0.82;;
13347;SDS011;6743;49.934;9.138;2023-05-16T12:25:58;0.73;;;0.68;;
13347;SDS011;6743;49.934;9.138;2023-05-16T12:28:29;2.80;;;1.17;;
13347;SDS011;6743;49.934;9.138;2023-05-16T12:30:57;1.00;;;0.90;;
13347;SDS011;6743;49.934;9.138;2023-05-16T12:33:23;0.55;;;0.55;;
13347;SDS011;6743;49.934;9.138;2023-05-16T12:35:49;1.85;;;0.93;;
13347;SDS011;6743;49.934;9.138;2023-05-16T12:38:17;0.80;;;0.80;;
13347;SDS011;6743;49.934;9.138;2023-05-16T12:40:46;0.70;;;0.70;;
13347;SDS011;6743;49.934;9.138;2023-05-16T12:43:13;0.80;;;0.80;;
13347;SDS011;6743;49.934;9.138;2023-05-16T12:45:39;0.77;;;0.77;;
13347;SDS011;6743;49.934;9.138;2023-05-16T12:48:10;0.60;;;0.60;;
13347;SDS011;6743;49.934;9.138;2023-05-16T12:50:37;1.33;;;0.90;;
13347;SDS011;6743;49.934;9.138;2023-05-16T12:53:04;0.75;;;0.75;;
13347;SDS011;6743;49.934;9.138;2023-05-16T12:55:30;0.80;;;0.80;;
13347;SDS011;6743;49.934;9.138;2023-05-16T12:57:56;0.82;;;0.82;;
13347;SDS011;6743;49.934;9.138;2023-05-16T13:00:25;0.73;;;0.73;;
13347;SDS011;6743;49.934;9.138;2023-05-16T13:02:52;1.58;;;0.90;;
13347;SDS011;6743;49.934;9.138;2023-05-16T13:05:18;0.70;;;0.70;;
13347;SDS011;6743;49.934;9.138;2023-05-16T13:07:47;3.80;;;1.33;;
13347;SDS011;6743;49.934;9.138;2023-05-16T13:10:16;2.12;;;0.70;;
13347;SDS011;6743;49.934;9.138;2023-05-16T13:12:43;1.08;;;0.70;;
13347;SDS011;6743;49.934;9.138;2023-05-16T13:15:10;1.00;;;0.80;;
13347;SDS011;6743;49.934;9.138;2023-05-16T13:17:37;0.90;;;0.90;;
13347;SDS011;6743;49.934;9.138;2023-05-16T13:20:05;1.62;;;0.90;;
13347;SDS011;6743;49.934;9.138;2023-05-16T13:22:33;0.70;;;0.70;;
13347;SDS011;6743;49.934;9.138;2023-05-16T13:24:59;0.68;;;0.65;;
13347;SDS011;6743;49.934;9.138;2023-05-16T13:27:25;0.60;;;0.60;;
13347;SDS011;6743;49.934;9.138;2023-05-16T13:29:51;0.55;;;0.55;;
13347;SDS011;6743;49.934;9.138;2023-05-16T13:32:17;0.93;;;0.80;;
13347;SDS011;6743;49.934;9.138;2023-05-16T13:34:44;0.98;;;0.98;;
13347;SDS011;6743;49.934;9.138;2023-05-16T13:37:10;0.70;;;0.70;;
13347;SDS011;6743;49.934;9.138;2023-05-16T13:39:36;1.27;;;0.70;;
13347;SDS011;6743;49.934;9.138;2023-05-16T13:42:02;1.08;;;0.77;;
13347;SDS011;6743;49.934;9.138;2023-05-16T13:44:29;0.80;;;0.55;;
13347;SDS011;6743;49.934;9.138;2023-05-16T13:46:55;0.70;;;0.70;;
13347;SDS011;6743;49.934;9.138;2023-05-16T13:49:24;0.70;;;0.65;;
13347;SDS011;6743;49.934;9.138;2023-05-16T13:51:51;1.27;;;1.17;;
13347;SDS011;6743;49.934;9.138;2023-05-16T13:54:17;3.15;;;1.12;;
13347;SDS011;6743;49.934;9.138;2023-05-16T13:56:44;0.70;;;0.68;;
13347;SDS011;6743;49.934;9.138;2023-05-16T13:59:10;0.50;;;0.50;;
13347;SDS011;6743;49.934;9.138;2023-05-16T14:01:36;1.00;;;0.65;;
13347;SDS011;6743;49.934;9.138;2023-05-16T14:04:02;1.08;;;0.82;;
13347;SDS011;6743;49.934;9.138;2023-05-16T14:06:29;1.80;;;0.68;;
13347;SDS011;6743;49.934;9.138;2023-05-16T14:08:56;1.55;;;0.70;;
13347;SDS011;6743;49.934;9.138;2023-05-16T14:11:22;1.10;;;1.00;;
13347;SDS011;6743;49.934;9.138;2023-05-16T14:13:51;1.62;;;0.77;;
13347;SDS011;6743;49.934;9.138;2023-05-16T14:16:17;0.45;;;0.45;;
13347;SDS011;6743;49.934;9.138;2023-05-16T14:18:43;0.45;;;0.45;;
13347;SDS011;6743;49.934;9.138;2023-05-16T14:21:09;0.60;;;0.60;;
13347;SDS011;6743;49.934;9.138;2023-05-16T14:23:35;0.73;;;0.62;;
13347;SDS011;6743;49.934;9.138;2023-05-16T14:26:02;0.60;;;0.60;;
13347;SDS011;6743;49.934;9.138;2023-05-16T14:28:30;0.60;;;0.60;;
13347;SDS011;6743;49.934;9.138;2023-05-16T14:30:57;2.72;;;0.65;;
13347;SDS011;6743;49.934;9.138;2023-05-16T14:33:23;0.40;;;0.40;;
13347;SDS011;6743;49.934;9.138;2023-05-16T14:35:49;0.50;;;0.50;;
13347;SDS011;6743;49.934;9.138;2023-05-16T14:38:16;0.80;;;0.55;;
13347;SDS011;6743;49.934;9.138;2023-05-16T14:40:42;0.40;;;0.40;;
13347;SDS011;6743;49.934;9.138;2023-05-16T14:43:12;0.30;;;0.30;;
13347;SDS011;6743;49.934;9.138;2023-05-16T14:45:44;0.55;;;0.52;;
13347;SDS011;6743;49.934;9.138;2023-05-16T14:48:17;1.10;;;0.75;;
13347;SDS011;6743;49.934;9.138;2023-05-16T14:50:49;0.30;;;0.30;;
13347;SDS011;6743;49.934;9.138;2023-05-16T14:53:16;0.50;;;0.50;;
13347;SDS011;6743;49.934;9.138;2023-05-16T14:55:42;0.50;;;0.50;;
13347;SDS011;6743;49.934;9.138;2023-05-16T14:58:08;0.73;;;0.50;;
13347;SDS011;6743;49.934;9.138;2023-05-16T15:00:36;0.88;;;0.50;;
13347;SDS011;6743;49.934;9.138;2023-05-16T15:03:03;1.58;;;0.70;;
13347;SDS011;6743;49.934;9.138;2023-05-16T15:05:29;0.52;;;0.52;;